Time;durP1;ratioP1;P1;durP2;ratioP2;P2;SDS_P1;SDS_P2;PMS_P1;PMS_P2;Temp;Humidity;BMP_temperature;BMP_pressure;BME280_temperature;BME280_humidity;BME280_pressure;Samples;Min_cycle;Max_cycle;Signal;HPM_P1;HPM_P2
2023/09/15 00:00:25;;;;;;;2.63;1.25;;;11.40;99.90;;;;;;5051767;28;20037;-66
2023/09/15 00:02:56;;;;;;;2.47;1.37;;;11.40;99.90;;;;;;5051638;28;20089;-66
2023/09/15 00:05:23;;;;;;;2.10;1.13;;;11.40;99.90;;;;;;5051017;28;20377;-66
2023/09/15 00:07:49;;;;;;;2.20;1.20;;;11.40;99.90;;;;;;5051717;28;20389;-66
2023/09/15 00:10:15;;;;;;;2.90;1.13;;;11.40;99.90;;;;;;5051665;28;20048;-66
2023/09/15 00:12:44;;;;;;;2.58;1.13;;;11.40;99.90;;;;;;5051026;28;20040;-66
2023/09/15 00:15:11;;;;;;;1.30;1.20;;;11.40;99.90;;;;;;5051762;28;20277;-66
2023/09/15 00:17:39;;;;;;;1.65;1.13;;;11.40;99.90;;;;;;5051502;28;20088;-66
2023/09/15 00:20:13;;;;;;;3.30;1.27;;;11.30;99.90;;;;;;5050904;28;20048;-66
2023/09/15 00:22:40;;;;;;;2.28;1.00;;;11.30;99.90;;;;;;5051435;28;20056;-66
2023/09/15 00:25:06;;;;;;;2.80;1.20;;;11.30;99.90;;;;;;5070199;28;20080;-66
2023/09/15 00:27:32;;;;;;;2.53;1.08;;;11.30;99.90;;;;;;5054822;28;20125;-66
2023/09/15 00:29:57;;;;;;;1.17;0.82;;;11.30;99.90;;;;;;5055660;28;20445;-66
2023/09/15 00:32:23;;;;;;;1.77;0.90;;;11.30;99.90;;;;;;5054560;28;20130;-66
2023/09/15 00:34:49;;;;;;;1.90;1.13;;;11.20;99.90;;;;;;5054925;28;20080;-66
2023/09/15 00:37:15;;;;;;;4.10;1.17;;;11.20;99.90;;;;;;5055036;28;20048;-66
2023/09/15 00:39:40;;;;;;;2.55;1.63;;;11.20;99.90;;;;;;5054845;28;20056;-66
2023/09/15 00:42:06;;;;;;;3.53;0.90;;;11.20;99.90;;;;;;5073146;28;20040;-66
2023/09/15 00:44:32;;;;;;;4.72;1.38;;;11.20;99.90;;;;;;5038068;28;20044;-66
2023/09/15 00:46:58;;;;;;;4.75;1.70;;;11.10;99.90;;;;;;5069307;28;20079;-66
2023/09/15 00:49:24;;;;;;;3.03;1.00;;;11.10;99.90;;;;;;5072646;28;20103;-67
2023/09/15 00:51:50;;;;;;;1.88;1.00;;;11.10;99.90;;;;;;5055213;28;20572;-68
2023/09/15 00:54:16;;;;;;;1.88;1.17;;;11.10;99.90;;;;;;5054023;28;20498;-67
2023/09/15 00:56:42;;;;;;;3.03;1.20;;;11.10;99.90;;;;;;5054734;28;20071;-68
2023/09/15 00:59:10;;;;;;;4.90;1.70;;;11.00;99.90;;;;;;5054887;28;20079;-68
2023/09/15 01:01:39;;;;;;;1.65;0.80;;;11.10;99.90;;;;;;5072170;28;20045;-68
2023/09/15 01:04:08;;;;;;;2.75;0.98;;;11.10;99.90;;;;;;5054855;28;20063;-68
2023/09/15 01:06:37;;;;;;;2.93;1.00;;;11.00;99.90;;;;;;5054656;28;20048;-66
2023/09/15 01:09:05;;;;;;;2.80;1.17;;;10.90;99.90;;;;;;5054546;28;20283;-67
2023/09/15 01:11:33;;;;;;;1.95;1.20;;;10.90;99.90;;;;;;5054478;28;20274;-67
2023/09/15 01:13:59;;;;;;;1.10;0.70;;;10.90;99.90;;;;;;5054518;28;20105;-67
2023/09/15 01:16:51;;;;;;;2.35;1.17;;;10.80;99.90;;;;;;5037151;28;20036;-67
2023/09/15 01:19:35;;;;;;;2.28;1.35;;;10.80;99.90;;;;;;5072142;28;20032;-67
2023/09/15 01:22:31;;;;;;;4.68;1.00;;;10.80;99.90;;;;;;5053951;28;20075;-66
2023/09/15 01:25:12;;;;;;;1.80;1.15;;;10.80;99.90;;;;;;5037649;28;20094;-66
2023/09/15 01:28:00;;;;;;;2.65;1.40;;;10.80;99.90;;;;;;5054400;28;20155;-66
2023/09/15 01:30:30;;;;;;;4.72;1.13;;;10.70;99.90;;;;;;5053496;28;20056;-65
2023/09/15 01:32:57;;;;;;;1.10;0.80;;;10.70;99.90;;;;;;5072366;28;20048;-67
2023/09/15 01:35:25;;;;;;;5.53;2.13;;;10.70;99.90;;;;;;5053744;28;20052;-66
2023/09/15 01:37:51;;;;;;;2.90;1.13;;;10.70;99.90;;;;;;5053280;28;20127;-67
2023/09/15 01:40:17;;;;;;;3.58;1.48;;;10.70;99.90;;;;;;5072180;28;20090;-66
2023/09/15 01:42:46;;;;;;;6.15;1.58;;;10.70;99.90;;;;;;5053954;28;20045;-66
2023/09/15 01:45:12;;;;;;;3.67;1.67;;;10.70;99.90;;;;;;5028311;28;20041;-66
2023/09/15 01:47:39;;;;;;;2.88;1.67;;;10.80;99.90;;;;;;5034189;28;20037;-66
2023/09/15 01:50:07;;;;;;;2.17;1.42;;;10.80;99.90;;;;;;5061490;28;20180;-66
2023/09/15 01:52:33;;;;;;;4.60;1.15;;;10.80;99.90;;;;;;5053950;28;20742;-66
2023/09/15 01:55:03;;;;;;;2.15;1.10;;;10.70;99.90;;;;;;5053923;28;20097;-67
2023/09/15 01:57:29;;;;;;;2.45;1.23;;;10.80;99.90;;;;;;5071026;28;20595;-66
2023/09/15 01:59:58;;;;;;;3.95;1.33;;;10.70;99.90;;;;;;5053439;28;20058;-67
2023/09/15 02:02:24;;;;;;;3.55;1.55;;;10.70;99.90;;;;;;5053763;28;20049;-66
2023/09/15 02:04:50;;;;;;;2.05;1.05;;;10.70;99.90;;;;;;5036322;28;20477;-66
2023/09/15 02:07:16;;;;;;;2.10;1.20;;;10.80;99.90;;;;;;5071434;28;20526;-67
2023/09/15 02:09:42;;;;;;;2.22;1.25;;;10.70;99.90;;;;;;5071516;28;20051;-66
2023/09/15 02:12:08;;;;;;;2.78;1.55;;;10.70;99.90;;;;;;5052745;28;20047;-66
2023/09/15 02:14:34;;;;;;;3.80;1.42;;;10.70;99.90;;;;;;5053581;28;20050;-66
2023/09/15 02:17:01;;;;;;;3.65;1.95;;;10.60;99.90;;;;;;5053573;28;20060;-67
2023/09/15 02:19:30;;;;;;;3.13;1.77;;;10.60;99.90;;;;;;5052712;28;20047;-67
2023/09/15 02:21:57;;;;;;;2.20;1.03;;;10.60;99.90;;;;;;5053105;28;20084;-66
2023/09/15 02:24:23;;;;;;;3.50;1.48;;;10.60;99.90;;;;;;5085681;28;20320;-66
2023/09/15 02:26:49;;;;;;;2.10;1.20;;;10.50;99.90;;;;;;5090986;28;20563;-67
2023/09/15 02:29:15;;;;;;;3.08;1.48;;;10.50;99.90;;;;;;5061219;28;20517;-66
2023/09/15 02:31:42;;;;;;;5.57;1.60;;;10.50;99.90;;;;;;5052216;28;20052;-66
2023/09/15 02:34:08;;;;;;;5.80;1.52;;;10.50;99.90;;;;;;5053207;28;20048;-66
2023/09/15 02:36:34;;;;;;;2.22;1.20;;;10.50;99.90;;;;;;5053311;28;20052;-66
2023/09/15 02:39:00;;;;;;;3.95;1.42;;;10.50;99.90;;;;;;5052338;28;20488;-66
2023/09/15 02:41:26;;;;;;;4.18;1.60;;;10.50;99.90;;;;;;5033206;28;20056;-66
2023/09/15 02:43:53;;;;;;;4.85;1.63;;;10.50;99.90;;;;;;5032866;28;20037;-66
2023/09/15 02:46:19;;;;;;;2.47;1.27;;;10.50;99.90;;;;;;5060151;28;20519;-67
2023/09/15 02:48:45;;;;;;;2.95;1.55;;;10.50;99.90;;;;;;5070712;28;20040;-66
2023/09/15 02:51:11;;;;;;;2.97;1.60;;;10.50;99.90;;;;;;5052810;28;20443;-66
2023/09/15 02:53:37;;;;;;;4.38;1.27;;;10.50;99.90;;;;;;5069551;28;20024;-66
2023/09/15 02:56:04;;;;;;;3.05;1.90;;;10.50;99.90;;;;;;5052584;28;20044;-66
2023/09/15 02:58:32;;;;;;;5.20;1.48;;;10.40;99.90;;;;;;5070493;28;20083;-66
2023/09/15 03:00:58;;;;;;;2.40;1.25;;;10.40;99.90;;;;;;5051842;28;20038;-66
2023/09/15 03:03:24;;;;;;;1.98;0.93;;;10.40;99.90;;;;;;5052306;28;20072;-67
2023/09/15 03:06:01;;;;;;;3.03;1.40;;;10.40;99.90;;;;;;5052282;28;20052;-66
2023/09/15 03:08:28;;;;;;;2.45;1.38;;;10.40;99.90;;;;;;5052008;28;20441;-66
2023/09/15 03:10:55;;;;;;;2.13;1.15;;;10.40;99.90;;;;;;5052680;28;20040;-66
2023/09/15 03:13:21;;;;;;;2.97;1.48;;;10.40;99.90;;;;;;5052318;28;20117;-66
2023/09/15 03:15:46;;;;;;;2.47;1.20;;;10.30;99.90;;;;;;5052000;28;20041;-66
2023/09/15 03:18:12;;;;;;;3.08;1.80;;;10.30;99.90;;;;;;5070181;28;20089;-67
2023/09/15 03:20:39;;;;;;;3.53;1.00;;;10.30;99.90;;;;;;5049622;28;20040;-67
2023/09/15 03:23:05;;;;;;;3.30;1.48;;;10.30;99.90;;;;;;5052011;28;20055;-66
2023/09/15 03:25:31;;;;;;;3.10;1.38;;;10.30;99.90;;;;;;5052043;28;20048;-67
2023/09/15 03:27:57;;;;;;;2.92;1.38;;;10.30;99.90;;;;;;5051460;28;20043;-66
2023/09/15 03:30:23;;;;;;;2.72;1.58;;;10.20;99.90;;;;;;5051892;28;20036;-66
2023/09/15 03:32:49;;;;;;;3.35;1.35;;;10.20;99.90;;;;;;5052029;28;20484;-66
2023/09/15 03:35:15;;;;;;;2.97;1.27;;;10.20;99.90;;;;;;5051710;28;20037;-66
2023/09/15 03:37:41;;;;;;;6.85;1.77;;;10.20;99.90;;;;;;5051800;28;20040;-66
2023/09/15 03:40:11;;;;;;;1.83;1.30;;;10.20;99.90;;;;;;5052084;28;20584;-66
2023/09/15 03:42:38;;;;;;;3.28;1.88;;;10.20;99.90;;;;;;5051655;28;20454;-67
2023/09/15 03:45:08;;;;;;;1.67;1.35;;;10.20;99.90;;;;;;5035353;28;20041;-66
2023/09/15 03:47:34;;;;;;;5.80;1.52;;;10.20;99.90;;;;;;5049552;28;20048;-66
2023/09/15 03:50:03;;;;;;;2.42;1.48;;;10.20;99.90;;;;;;5049056;28;20037;-66
2023/09/15 03:52:28;;;;;;;6.63;2.08;;;10.20;99.90;;;;;;5031861;28;20033;-66
2023/09/15 03:55:00;;;;;;;3.67;2.30;;;10.10;99.90;;;;;;5069025;28;20794;-66
2023/09/15 03:57:27;;;;;;;3.72;1.63;;;10.10;99.90;;;;;;5051094;28;20050;-66
2023/09/15 03:59:53;;;;;;;1.27;1.00;;;10.10;99.90;;;;;;5053599;28;20158;-66
2023/09/15 04:02:19;;;;;;;2.88;1.17;;;10.10;99.90;;;;;;5075552;28;20540;-66
2023/09/15 04:04:45;;;;;;;4.28;1.48;;;10.10;99.90;;;;;;5058121;28;20600;-66
2023/09/15 04:07:12;;;;;;;2.13;1.33;;;10.10;99.90;;;;;;5058376;28;20041;-66
2023/09/15 04:09:39;;;;;;;2.83;1.42;;;10.00;99.90;;;;;;5075486;28;20524;-66
2023/09/15 04:12:05;;;;;;;3.72;1.58;;;10.00;99.90;;;;;;5058210;28;20047;-66
2023/09/15 04:14:34;;;;;;;3.88;1.20;;;10.00;99.90;;;;;;5076124;28;20056;-66
2023/09/15 04:17:03;;;;;;;3.30;1.30;;;10.00;99.90;;;;;;5073567;28;20059;-66
2023/09/15 04:19:30;;;;;;;4.30;1.65;;;10.00;99.90;;;;;;5076124;28;20066;-66
2023/09/15 04:21:58;;;;;;;1.75;1.15;;;9.90;99.90;;;;;;5075947;28;20431;-66
2023/09/15 04:24:25;;;;;;;2.78;1.42;;;9.90;99.90;;;;;;5040606;28;20048;-66
2023/09/15 04:26:51;;;;;;;2.25;0.82;;;9.90;99.90;;;;;;5075935;28;20044;-67
2023/09/15 04:29:17;;;;;;;2.58;1.55;;;9.80;99.90;;;;;;5058050;28;20525;-66
2023/09/15 04:31:43;;;;;;;1.95;1.13;;;9.90;99.90;;;;;;5075200;28;20397;-66
2023/09/15 04:34:09;;;;;;;2.17;1.40;;;9.80;99.90;;;;;;5058234;28;20049;-67
2023/09/15 04:36:37;;;;;;;2.22;1.55;;;9.80;99.90;;;;;;5058141;28;20049;-67
2023/09/15 04:39:04;;;;;;;7.38;1.77;;;9.80;99.90;;;;;;5049371;28;20119;-67
2023/09/15 04:41:30;;;;;;;6.00;1.45;;;9.80;99.90;;;;;;5058028;28;20048;-67
2023/09/15 04:43:56;;;;;;;4.47;1.80;;;9.80;99.90;;;;;;5075108;28;20098;-67
2023/09/15 04:46:24;;;;;;;4.93;2.00;;;9.80;99.90;;;;;;5057346;28;20052;-67
2023/09/15 04:48:50;;;;;;;2.53;1.27;;;9.80;99.90;;;;;;5058092;28;20079;-67
2023/09/15 04:51:17;;;;;;;3.50;1.13;;;9.80;99.90;;;;;;5057610;28;20047;-67
2023/09/15 04:53:42;;;;;;;2.75;1.52;;;9.80;99.90;;;;;;5057492;28;20523;-67
2023/09/15 04:56:09;;;;;;;5.13;1.42;;;9.80;99.90;;;;;;5058083;28;20075;-66
2023/09/15 04:58:34;;;;;;;7.00;2.03;;;9.80;99.90;;;;;;5056999;28;20076;-67
2023/09/15 05:01:00;;;;;;;3.17;1.50;;;9.80;99.90;;;;;;5057915;28;20083;-66
2023/09/15 05:03:27;;;;;;;3.72;1.80;;;9.70;99.90;;;;;;5057837;28;20069;-67
2023/09/15 05:05:53;;;;;;;5.30;1.20;;;9.70;99.90;;;;;;5057260;28;20040;-66
2023/09/15 05:08:19;;;;;;;4.28;1.27;;;9.70;99.90;;;;;;5057892;28;20534;-66
2023/09/15 05:10:49;;;;;;;2.22;1.30;;;9.70;99.90;;;;;;5057694;28;20043;-67
2023/09/15 05:13:15;;;;;;;7.15;2.33;;;9.70;99.90;;;;;;5036817;28;20044;-67
2023/09/15 05:15:41;;;;;;;5.22;1.90;;;9.70;99.90;;;;;;5037869;28;20089;-67
2023/09/15 05:18:07;;;;;;;4.22;1.70;;;9.60;99.90;;;;;;5037917;28;20043;-67
2023/09/15 05:20:33;;;;;;;3.97;1.45;;;9.60;99.90;;;;;;5054197;28;20036;-67
2023/09/15 05:22:59;;;;;;;2.33;1.25;;;9.70;99.90;;;;;;5054336;28;20539;-67
2023/09/15 05:25:25;;;;;;;4.43;1.90;;;9.70;99.90;;;;;;5054127;28;20048;-67
2023/09/15 05:27:51;;;;;;;2.40;1.08;;;9.70;99.90;;;;;;5053907;28;20040;-67
2023/09/15 05:30:17;;;;;;;3.08;1.50;;;9.60;99.90;;;;;;5054315;28;20361;-67
2023/09/15 05:32:43;;;;;;;3.10;1.67;;;9.70;99.90;;;;;;5020453;28;20063;-67
2023/09/15 05:35:13;;;;;;;1.88;1.45;;;9.70;99.90;;;;;;5036732;28;20130;-67
2023/09/15 05:37:39;;;;;;;1.88;1.15;;;9.70;99.90;;;;;;5036981;28;20050;-67
2023/09/15 05:40:06;;;;;;;5.97;1.75;;;9.80;99.90;;;;;;4970031;28;20039;-67
2023/09/15 05:42:32;;;;;;;3.25;1.30;;;9.80;99.90;;;;;;5036278;28;20072;-67
2023/09/15 05:44:59;;;;;;;12.68;1.80;;;9.80;99.90;;;;;;5036822;28;20043;-67
2023/09/15 05:47:25;;;;;;;4.38;2.03;;;9.80;99.90;;;;;;5036599;28;20062;-66
2023/09/15 05:49:51;;;;;;;4.50;2.00;;;9.80;99.90;;;;;;5037122;28;20121;-67
2023/09/15 05:52:17;;;;;;;3.25;1.65;;;9.90;99.90;;;;;;5036539;28;20444;-66
2023/09/15 05:54:44;;;;;;;2.53;1.40;;;9.90;99.90;;;;;;4969030;28;20050;-67
2023/09/15 05:57:10;;;;;;;3.38;1.25;;;10.00;99.90;;;;;;5036599;28;20126;-66
2023/09/15 05:59:36;;;;;;;4.18;1.80;;;10.00;99.90;;;;;;5036729;28;20153;-67
2023/09/15 06:02:02;;;;;;;4.45;1.42;;;10.10;99.90;;;;;;5036212;28;20133;-67
2023/09/15 06:04:28;;;;;;;4.65;1.50;;;10.10;99.90;;;;;;5036741;28;20126;-67
2023/09/15 06:06:54;;;;;;;1.85;1.30;;;10.20;99.90;;;;;;5035993;28;20121;-67
2023/09/15 06:09:20;;;;;;;6.53;1.90;;;10.30;99.90;;;;;;5030326;28;20040;-67
2023/09/15 06:11:46;;;;;;;2.67;1.08;;;10.30;99.90;;;;;;5070207;28;20125;-67
2023/09/15 06:14:12;;;;;;;2.55;1.38;;;10.40;99.90;;;;;;5053185;28;20054;-67
2023/09/15 06:16:39;;;;;;;2.72;1.50;;;10.50;99.90;;;;;;5034062;28;20047;-67
2023/09/15 06:19:06;;;;;;;3.63;1.70;;;10.60;99.90;;;;;;5032068;28;20062;-68
2023/09/15 06:21:32;;;;;;;4.38;2.10;;;10.80;99.90;;;;;;5039497;28;20038;-67
2023/09/15 06:23:59;;;;;;;5.63;1.30;;;11.20;99.90;;;;;;5055116;28;20402;-67
2023/09/15 06:26:25;;;;;;;2.50;1.60;;;11.60;99.90;;;;;;5055963;28;20449;-67
2023/09/15 06:28:51;;;;;;;2.90;1.52;;;11.90;99.90;;;;;;5055959;28;20034;-67
2023/09/15 06:31:18;;;;;;;2.25;1.50;;;12.30;99.90;;;;;;5071800;28;20052;-67
2023/09/15 06:33:45;;;;;;;2.95;1.63;;;12.50;99.90;;;;;;5090494;28;20055;-68
2023/09/15 06:36:11;;;;;;;2.78;1.27;;;12.70;99.90;;;;;;5071273;28;20044;-67
2023/09/15 06:38:37;;;;;;;5.75;1.15;;;12.80;99.90;;;;;;5054062;28;20032;-68
2023/09/15 06:41:03;;;;;;;2.22;1.48;;;12.70;99.90;;;;;;5069508;28;20040;-68
2023/09/15 06:43:29;;;;;;;2.33;1.20;;;12.60;99.90;;;;;;5051832;28;20047;-68
2023/09/15 06:45:55;;;;;;;1.42;1.10;;;12.50;99.90;;;;;;5052555;28;20052;-68
2023/09/15 06:48:21;;;;;;;2.08;1.02;;;12.40;99.90;;;;;;5051835;28;20128;-68
2023/09/15 06:50:46;;;;;;;2.10;1.42;;;12.30;99.90;;;;;;5051222;28;20048;-68
2023/09/15 06:53:13;;;;;;;2.85;1.27;;;12.30;99.90;;;;;;5069734;28;20038;-68
2023/09/15 06:55:38;;;;;;;2.22;1.10;;;12.30;99.90;;;;;;5052431;28;20076;-68
2023/09/15 06:58:04;;;;;;;2.33;1.42;;;12.40;99.90;;;;;;5051844;28;20099;-68
2023/09/15 07:00:30;;;;;;;2.90;1.10;;;12.40;99.90;;;;;;5052106;28;20512;-68
2023/09/15 07:02:56;;;;;;;2.22;1.23;;;12.40;99.90;;;;;;5051712;28;20040;-68
2023/09/15 07:05:22;;;;;;;2.25;1.23;;;12.40;99.90;;;;;;5056355;28;20123;-68
2023/09/15 07:07:48;;;;;;;5.57;1.73;;;12.50;99.90;;;;;;5032041;28;20121;-68
2023/09/15 07:10:14;;;;;;;3.85;1.23;;;12.50;99.90;;;;;;5065609;28;20036;-68
2023/09/15 07:12:40;;;;;;;2.72;2.03;;;12.60;99.90;;;;;;5049969;28;20112;-68
2023/09/15 07:15:07;;;;;;;3.90;1.38;;;12.70;99.90;;;;;;5033883;28;20123;-67
2023/09/15 07:17:33;;;;;;;3.30;1.10;;;12.70;99.90;;;;;;5049878;28;20040;-68
2023/09/15 07:19:59;;;;;;;2.25;1.20;;;12.80;99.90;;;;;;5050521;28;20123;-68
2023/09/15 07:22:27;;;;;;;1.80;1.23;;;12.90;99.90;;;;;;5067982;28;20032;-68
2023/09/15 07:24:53;;;;;;;2.55;1.38;;;13.00;99.90;;;;;;5050798;28;20041;-68
2023/09/15 07:27:19;;;;;;;4.22;1.45;;;13.10;99.90;;;;;;5067953;28;20044;-67
2023/09/15 07:29:46;;;;;;;5.18;1.52;;;13.20;99.90;;;;;;5067443;28;20164;-68
2023/09/15 07:32:12;;;;;;;3.42;1.58;;;13.30;99.90;;;;;;5049223;28;20420;-67
2023/09/15 07:34:39;;;;;;;3.38;1.70;;;13.40;99.90;;;;;;5048402;28;20123;-67
2023/09/15 07:37:06;;;;;;;3.25;1.30;;;13.50;99.90;;;;;;5069028;28;20109;-69
2023/09/15 07:39:32;;;;;;;2.33;1.40;;;13.70;99.90;;;;;;5050973;28;20059;-67
2023/09/15 07:41:57;;;;;;;4.47;1.85;;;13.80;99.90;;;;;;5056202;28;20044;-67
2023/09/15 07:44:24;;;;;;;4.28;1.85;;;13.90;99.90;;;;;;5051702;28;20584;-68
2023/09/15 07:46:49;;;;;;;2.28;1.05;;;14.00;99.90;;;;;;5050977;28;20123;-68
2023/09/15 07:49:15;;;;;;;2.85;1.30;;;14.10;99.90;;;;;;5069556;28;20044;-67
2023/09/15 07:51:41;;;;;;;3.10;1.27;;;14.30;99.90;;;;;;5051995;28;20473;-68
2023/09/15 07:54:08;;;;;;;2.28;0.80;;;14.40;99.90;;;;;;5050792;28;20044;-67
2023/09/15 07:56:36;;;;;;;3.08;1.05;;;14.50;99.90;;;;;;5069499;28;20032;-68
2023/09/15 07:59:03;;;;;;;2.67;1.40;;;14.60;99.90;;;;;;5069576;28;20032;-68
2023/09/15 08:01:29;;;;;;;1.23;0.80;;;14.80;99.90;;;;;;5039527;28;20040;-67
2023/09/15 08:03:54;;;;;;;3.45;1.33;;;14.90;99.90;;;;;;5063138;28;20198;-67
2023/09/15 08:06:20;;;;;;;2.03;1.23;;;15.20;99.90;;;;;;5069239;28;20043;-68
2023/09/15 08:08:46;;;;;;;2.55;1.67;;;15.60;99.90;;;;;;5049990;28;20036;-67
2023/09/15 08:11:12;;;;;;;2.80;1.52;;;16.10;99.90;;;;;;5051403;28;20045;-69
2023/09/15 08:13:38;;;;;;;3.42;1.45;;;16.80;99.90;;;;;;5051408;28;20047;-68
2023/09/15 08:16:03;;;;;;;4.50;1.33;;;17.40;99.90;;;;;;5051164;28;20128;-67
2023/09/15 08:18:41;;;;;;;1.75;0.98;;;18.00;99.90;;;;;;5051690;28;20443;-68
2023/09/15 08:21:07;;;;;;;6.60;1.38;;;18.60;99.90;;;;;;5051827;28;20040;-68
2023/09/15 08:23:34;;;;;;;2.30;1.13;;;19.10;99.90;;;;;;5068963;28;20511;-69
2023/09/15 08:26:01;;;;;;;5.55;1.00;;;19.50;99.90;;;;;;5051586;28;20416;-69
2023/09/15 08:28:27;;;;;;;2.08;1.08;;;19.80;99.90;;;;;;5050717;28;20056;-68
2023/09/15 08:30:52;;;;;;;2.30;1.00;;;20.20;99.90;;;;;;5051219;28;20052;-68
2023/09/15 08:33:19;;;;;;;2.55;1.25;;;20.40;99.90;;;;;;5035165;28;20036;-69
2023/09/15 08:35:45;;;;;;;2.45;0.80;;;20.70;99.90;;;;;;5050088;28;20048;-68
2023/09/15 08:38:12;;;;;;;5.97;1.42;;;20.90;99.90;;;;;;5051025;28;20373;-69
2023/09/15 08:40:49;;;;;;;3.33;1.17;;;21.20;99.90;;;;;;5037959;28;20061;-69
2023/09/15 08:43:15;;;;;;;3.03;1.05;;;21.40;99.90;;;;;;4986524;28;20038;-68
2023/09/15 08:45:47;;;;;;;3.88;1.35;;;21.60;99.90;;;;;;5054237;28;20051;-68
2023/09/15 08:48:17;;;;;;;3.17;1.00;;;21.60;99.90;;;;;;5057941;28;20126;-68
2023/09/15 08:50:44;;;;;;;1.95;0.80;;;21.80;99.90;;;;;;5057141;28;20046;-68
2023/09/15 08:53:11;;;;;;;1.70;0.65;;;22.10;99.90;;;;;;5010942;28;20469;-69
2023/09/15 08:55:37;;;;;;;1.08;0.60;;;22.00;99.90;;;;;;5054986;28;20079;-70
2023/09/15 08:58:04;;;;;;;2.60;1.10;;;22.00;99.90;;;;;;5039182;28;20146;-69
2023/09/15 09:00:32;;;;;;;2.10;1.05;;;22.20;99.90;;;;;;5050597;28;20451;-67
2023/09/15 09:02:59;;;;;;;3.10;0.82;;;22.40;99.90;;;;;;5071902;28;20047;-70
2023/09/15 09:05:27;;;;;;;2.25;0.70;;;22.60;99.90;;;;;;5071955;28;20052;-67
2023/09/15 09:07:56;;;;;;;4.13;1.02;;;22.90;99.90;;;;;;5054061;28;20036;-67
2023/09/15 09:10:24;;;;;;;6.18;1.02;;;23.10;99.90;;;;;;5054040;28;20048;-68
2023/09/15 09:12:50;;;;;;;1.48;0.75;;;23.30;99.90;;;;;;5072234;28;20597;-68
2023/09/15 09:15:17;;;;;;;6.05;1.33;;;23.60;99.90;;;;;;5054409;28;20075;-68
2023/09/15 09:17:43;;;;;;;1.70;0.80;;;23.70;99.90;;;;;;5037746;28;20040;-69
2023/09/15 09:20:23;;;;;;;2.17;0.85;;;23.90;99.90;;;;;;5072093;28;20039;-68
2023/09/15 09:22:50;;;;;;;3.17;0.85;;;24.10;99.90;;;;;;5072210;28;20032;-69
2023/09/15 09:25:28;;;;;;;1.92;0.98;;;24.40;99.90;;;;;;5053174;28;20052;-69
2023/09/15 09:27:55;;;;;;;1.08;0.70;;;24.50;99.90;;;;;;5054440;28;20048;-68
2023/09/15 09:30:29;;;;;;;1.90;1.00;;;24.80;99.90;;;;;;5071381;28;20093;-68
2023/09/15 09:32:55;;;;;;;4.35;1.15;;;25.00;99.90;;;;;;5053438;28;20076;-70
2023/09/15 09:35:21;;;;;;;1.88;0.68;;;25.00;99.90;;;;;;5073056;28;20102;-69
2023/09/15 09:37:48;;;;;;;2.22;1.10;;;24.80;99.90;;;;;;5045314;28;20041;-69
2023/09/15 09:40:14;;;;;;;3.13;1.77;;;24.70;99.90;;;;;;5047211;28;20051;-69
2023/09/15 09:42:42;;;;;;;5.18;1.27;;;24.80;99.90;;;;;;5056943;28;20050;-69
2023/09/15 09:45:08;;;;;;;2.10;1.08;;;24.80;99.90;;;;;;5056589;28;20050;-70
2023/09/15 09:47:34;;;;;;;2.88;1.20;;;25.00;99.90;;;;;;5056188;28;20038;-69
2023/09/15 09:50:06;;;;;;;2.00;1.13;;;25.20;99.90;;;;;;5057085;28;20076;-69
2023/09/15 09:52:33;;;;;;;2.13;0.70;;;25.60;99.40;;;;;;5056201;28;20137;-69
2023/09/15 09:55:07;;;;;;;2.25;1.00;;;25.90;98.30;;;;;;5052972;28;20052;-70
2023/09/15 09:57:33;;;;;;;3.90;1.00;;;26.30;97.80;;;;;;5052544;28;20393;-69
2023/09/15 09:59:59;;;;;;;3.03;0.80;;;26.60;98.10;;;;;;5035936;28;20040;-69
2023/09/15 10:02:26;;;;;;;4.90;0.98;;;26.90;97.50;;;;;;5053536;28;20037;-70
2023/09/15 10:04:53;;;;;;;2.72;0.82;;;27.00;96.80;;;;;;5071487;28;20451;-69
2023/09/15 10:07:19;;;;;;;1.33;0.60;;;27.00;95.50;;;;;;5070365;28;20073;-70
2023/09/15 10:09:46;;;;;;;1.90;0.60;;;26.90;94.60;;;;;;5065170;28;20076;-69
2023/09/15 10:12:13;;;;;;;4.55;0.77;;;26.80;94.70;;;;;;5053501;28;20051;-69
2023/09/15 10:14:40;;;;;;;2.58;0.68;;;26.90;94.00;;;;;;5052509;28;20056;-68
2023/09/15 10:17:06;;;;;;;3.08;0.70;;;27.00;93.20;;;;;;5036122;28;20069;-70
2023/09/15 10:19:33;;;;;;;1.13;0.40;;;27.10;93.50;;;;;;5052693;28;20053;-69
2023/09/15 10:22:00;;;;;;;2.72;0.40;;;27.20;93.10;;;;;;5052655;28;20045;-69
2023/09/15 10:24:29;;;;;;;2.35;0.30;;;27.20;92.70;;;;;;5053379;28;20057;-69
2023/09/15 10:26:54;;;;;;;;;;;27.20;92.20;;;;;;5053611;28;20469;-69
2023/09/15 10:29:20;;;;;;;1.13;0.52;;;27.30;91.70;;;;;;5052574;28;19924;-69
2023/09/15 10:31:47;;;;;;;1.33;0.57;;;27.30;91.70;;;;;;5069972;28;20060;-69
2023/09/15 10:34:14;;;;;;;0.93;0.57;;;27.20;91.10;;;;;;5059226;28;20041;-68
2023/09/15 10:36:41;;;;;;;1.80;0.47;;;26.80;87.30;;;;;;5032126;28;20049;-70
2023/09/15 10:39:36;;;;;;;7.13;1.02;;;26.50;89.30;;;;;;5042469;28;20501;-69
2023/09/15 10:42:06;;;;;;;0.95;0.32;;;26.50;87.50;;;;;;5032612;28;20037;-72
2023/09/15 10:44:32;;;;;;;1.20;0.40;;;26.30;89.50;;;;;;5032840;28;20052;-68
2023/09/15 10:46:59;;;;;;;1.38;0.55;;;26.00;89.00;;;;;;5032366;28;20044;-67
2023/09/15 10:49:25;;;;;;;1.45;0.40;;;25.80;90.00;;;;;;5032269;28;20121;-69
2023/09/15 10:51:56;;;;;;;1.75;0.77;;;25.80;89.20;;;;;;5050044;28;20156;-68
2023/09/15 10:54:29;;;;;;;1.75;0.77;;;25.60;88.70;;;;;;5047731;28;20040;-68
2023/09/15 10:56:56;;;;;;;3.30;0.52;;;25.20;88.80;;;;;;5051924;28;20048;-69
2023/09/15 10:59:22;;;;;;;1.38;0.60;;;24.80;88.40;;;;;;5052455;28;20036;-68
2023/09/15 11:01:48;;;;;;;1.65;0.63;;;24.80;87.80;;;;;;5070346;28;20448;-68
2023/09/15 11:04:20;;;;;;;4.10;0.88;;;25.10;88.80;;;;;;5051738;28;20049;-67
2023/09/15 11:06:51;;;;;;;1.80;0.50;;;25.30;88.70;;;;;;5070229;28;20076;-69
2023/09/15 11:09:19;;;;;;;1.13;0.50;;;25.20;84.80;;;;;;5051132;28;20041;-70
2023/09/15 11:11:45;;;;;;;2.42;0.63;;;24.80;83.40;;;;;;5052013;28;20087;-68
2023/09/15 11:14:16;;;;;;;1.42;0.70;;;24.40;85.20;;;;;;5051569;28;20080;-69
2023/09/15 11:16:49;;;;;;;2.35;1.13;;;24.10;85.50;;;;;;5069143;28;20116;-67
2023/09/15 11:19:25;;;;;;;1.77;0.70;;;23.80;86.20;;;;;;5052071;28;20045;-67
2023/09/15 11:22:09;;;;;;;1.83;0.52;;;23.90;86.30;;;;;;5068471;28;20041;-69
2023/09/15 11:24:37;;;;;;;1.00;0.30;;;23.80;85.80;;;;;;5051301;28;20041;-68
2023/09/15 11:27:04;;;;;;;1.83;0.73;;;23.70;86.10;;;;;;5059478;28;20043;-68
2023/09/15 11:29:31;;;;;;;2.72;0.93;;;23.70;86.70;;;;;;5048976;28;20037;-68
2023/09/15 11:31:58;;;;;;;4.47;0.65;;;23.90;86.00;;;;;;5031115;28;20049;-68
2023/09/15 11:34:24;;;;;;;2.92;1.00;;;23.70;85.20;;;;;;5053344;28;20044;-67
2023/09/15 11:36:56;;;;;;;3.17;0.85;;;23.40;87.00;;;;;;5052237;28;20055;-68
2023/09/15 11:39:23;;;;;;;3.65;0.57;;;23.30;86.50;;;;;;5051479;28;20044;-68
2023/09/15 11:41:54;;;;;;;1.90;0.65;;;23.20;88.00;;;;;;5069947;28;20032;-67
2023/09/15 11:44:29;;;;;;;0.43;0.22;;;23.40;88.80;;;;;;5051958;28;20044;-66
2023/09/15 11:46:58;;;;;;;1.70;0.70;;;23.70;89.70;;;;;;5052228;28;20496;-66
2023/09/15 11:49:25;;;;;;;2.03;0.93;;;24.20;89.60;;;;;;5051908;28;20044;-68
2023/09/15 11:51:54;;;;;;;1.30;0.70;;;24.40;87.50;;;;;;5051210;28;20051;-68
2023/09/15 11:54:20;;;;;;;2.28;0.90;;;24.00;87.00;;;;;;5050912;28;20045;-68
2023/09/15 11:56:46;;;;;;;1.27;0.70;;;23.70;87.90;;;;;;5051626;28;20053;-69
2023/09/15 11:59:15;;;;;;;1.70;0.80;;;23.70;88.40;;;;;;5050855;28;20087;-66
2023/09/15 12:01:41;;;;;;;1.57;0.70;;;23.80;89.20;;;;;;5069710;28;20477;-67
2023/09/15 12:04:08;;;;;;;3.38;0.80;;;23.80;89.90;;;;;;5069620;28;20670;-68
2023/09/15 12:06:35;;;;;;;1.50;0.77;;;24.10;90.10;;;;;;5051277;28;20052;-68
2023/09/15 12:09:02;;;;;;;3.53;1.00;;;24.20;90.10;;;;;;5051540;28;20053;-68
2023/09/15 12:11:29;;;;;;;2.05;0.75;;;24.20;88.10;;;;;;5034534;28;20463;-68
2023/09/15 12:13:56;;;;;;;3.85;0.90;;;23.90;88.80;;;;;;5050854;28;20136;-69
2023/09/15 12:16:22;;;;;;;3.50;0.93;;;23.50;88.80;;;;;;5069440;28;20135;-68
2023/09/15 12:18:49;;;;;;;2.35;1.13;;;23.70;90.00;;;;;;5069281;28;20137;-70
2023/09/15 12:21:15;;;;;;;1.40;0.65;;;24.20;89.60;;;;;;5070276;28;20041;-68
2023/09/15 12:23:42;;;;;;;2.40;0.85;;;24.40;88.60;;;;;;5056532;28;20115;-68
2023/09/15 12:26:11;;;;;;;1.75;0.55;;;24.20;88.50;;;;;;5035785;28;20067;-67
2023/09/15 12:28:37;;;;;;;1.50;0.65;;;24.10;89.30;;;;;;5035156;28;20366;-69
2023/09/15 12:31:07;;;;;;;5.57;0.80;;;24.00;88.80;;;;;;5035082;28;20425;-69
2023/09/15 12:33:32;;;;;;;2.67;0.70;;;24.10;89.50;;;;;;5034864;28;20488;-68
2023/09/15 12:36:04;;;;;;;5.55;1.05;;;24.40;88.40;;;;;;5053181;28;20049;-67
2023/09/15 12:38:30;;;;;;;3.58;0.80;;;24.40;89.20;;;;;;5055609;28;20037;-67
2023/09/15 12:40:56;;;;;;;0.85;0.50;;;24.40;88.60;;;;;;5054588;28;20056;-69
2023/09/15 12:43:21;;;;;;;2.63;0.70;;;24.40;87.50;;;;;;5072969;28;20043;-66
2023/09/15 12:45:47;;;;;;;3.53;1.00;;;24.30;88.10;;;;;;5054804;28;20045;-68
2023/09/15 12:48:13;;;;;;;2.38;0.82;;;24.40;88.00;;;;;;5054704;28;20110;-69